Time;durP1;ratioP1;P1;durP2;ratioP2;P2;SDS_P1;SDS_P2;PMS_P1;PMS_P2;Temp;Humidity;BMP_temperature;BMP_pressure;BME280_temperature;BME280_humidity;BME280_pressure;Samples;Min_cycle;Max_cycle;Signal;HPM_P1;HPM_P2
2021/10/17 00:01:15;;;;;;;12.20;9.00;;;;;;;;;;5111317;28;20227;-78
2021/10/17 00:03:43;;;;;;;13.05;9.50;;;;;;;;;;5108978;28;20215;-78
2021/10/17 00:06:11;;;;;;;15.27;9.40;;;;;;;;;;5111182;28;20193;-79
2021/10/17 00:08:38;;;;;;;15.85;9.20;;;;;;;;;;5106137;27;20200;-79
2021/10/17 00:11:05;;;;;;;17.67;9.07;;;;;;;;;;5116022;27;20192;-78
2021/10/17 00:13:32;;;;;;;14.43;8.68;;;;;;;;;;5127277;27;20200;-79
2021/10/17 00:16:00;;;;;;;14.15;9.30;;;;;;;;;;5112867;27;20189;-78
2021/10/17 00:18:27;;;;;;;12.90;8.93;;;;;;;;;;5096136;28;20196;-79
2021/10/17 00:20:57;;;;;;;13.27;9.23;;;;;;;;;;5090333;28;20224;-79
2021/10/17 00:23:24;;;;;;;16.83;8.38;;;;;;;;;;5095223;27;20284;-78
2021/10/17 00:25:54;;;;;;;14.18;9.18;;;;;;;;;;5114431;27;20195;-79
2021/10/17 00:28:22;;;;;;;17.83;9.70;;;;;;;;;;5116338;27;20689;-78
2021/10/17 00:30:49;;;;;;;11.45;9.90;;;;;;;;;;5104763;28;20198;-79
2021/10/17 00:33:16;;;;;;;13.05;8.75;;;;;;;;;;5091792;28;20213;-79
2021/10/17 00:35:44;;;;;;;10.65;9.20;;;;;;;;;;5091082;28;20296;-78
2021/10/17 00:38:12;;;;;;;16.08;9.95;;;;;;;;;;5104311;27;20197;-78
2021/10/17 00:40:41;;;;;;;11.98;8.73;;;;;;;;;;5117570;27;20180;-79
2021/10/17 00:43:08;;;;;;;14.13;8.70;;;;;;;;;;5121344;27;20773;-78
2021/10/17 00:45:36;;;;;;;12.68;9.60;;;;;;;;;;5120471;27;20192;-79
2021/10/17 00:48:04;;;;;;;12.73;9.25;;;;;;;;;;5102735;28;20220;-78
2021/10/17 00:50:32;;;;;;;11.65;9.23;;;;;;;;;;5110646;28;20663;-79
2021/10/17 00:52:59;;;;;;;12.32;9.52;;;;;;;;;;5098683;28;20220;-78
2021/10/17 00:55:29;;;;;;;10.45;8.18;;;;;;;;;;5102993;27;20192;-78
2021/10/17 00:57:59;;;;;;;13.40;8.32;;;;;;;;;;5116531;27;20196;-79
2021/10/17 01:00:27;;;;;;;14.38;9.18;;;;;;;;;;5106694;28;20247;-78
2021/10/17 01:02:54;;;;;;;12.82;7.72;;;;;;;;;;5110067;28;20224;-77
2021/10/17 01:05:22;;;;;;;13.85;8.60;;;;;;;;;;5107511;28;20185;-81
2021/10/17 01:07:49;;;;;;;11.90;8.52;;;;;;;;;;5088299;28;20211;-80
2021/10/17 01:10:18;;;;;;;13.73;9.98;;;;;;;;;;5107038;28;20192;-80
2021/10/17 01:12:46;;;;;;;15.20;9.20;;;;;;;;;;5114357;27;20223;-80
2021/10/17 01:15:14;;;;;;;15.48;9.30;;;;;;;;;;5110368;27;20197;-79
2021/10/17 01:17:41;;;;;;;11.07;7.68;;;;;;;;;;5109648;28;20193;-79
2021/10/17 01:20:10;;;;;;;15.55;9.30;;;;;;;;;;5099272;28;20201;-80
2021/10/17 01:22:38;;;;;;;13.45;8.50;;;;;;;;;;5109924;28;20216;-79
2021/10/17 01:25:06;;;;;;;21.10;9.25;;;;;;;;;;5108314;28;20220;-79
2021/10/17 01:27:33;;;;;;;14.20;8.75;;;;;;;;;;5111940;27;20650;-79
2021/10/17 01:30:01;;;;;;;12.82;8.90;;;;;;;;;;5114347;27;20193;-78
2021/10/17 01:32:28;;;;;;;16.60;10.05;;;;;;;;;;5103160;28;20555;-78
2021/10/17 01:34:55;;;;;;;10.68;8.00;;;;;;;;;;5095661;28;20478;-77
2021/10/17 01:37:24;;;;;;;15.50;9.38;;;;;;;;;;5109525;28;20193;-79
2021/10/17 01:39:51;;;;;;;11.25;8.98;;;;;;;;;;5108129;28;20195;-79
2021/10/17 01:42:19;;;;;;;10.10;8.50;;;;;;;;;;5108217;27;20220;-78
2021/10/17 01:44:46;;;;;;;13.10;9.60;;;;;;;;;;5116279;27;20194;-80
2021/10/17 01:47:13;;;;;;;11.38;8.55;;;;;;;;;;5092096;27;20197;-79
2021/10/17 01:49:41;;;;;;;13.52;9.10;;;;;;;;;;5088491;28;21289;-79
2021/10/17 01:52:08;;;;;;;16.58;9.10;;;;;;;;;;5084212;28;20223;-79
2021/10/17 01:54:37;;;;;;;15.55;8.65;;;;;;;;;;5084618;28;20223;-77
2021/10/17 01:57:04;;;;;;;17.77;8.90;;;;;;;;;;5103911;28;20530;-79
2021/10/17 01:59:32;;;;;;;16.67;9.77;;;;;;;;;;5107198;27;20207;-79
2021/10/17 02:01:59;;;;;;;20.58;9.80;;;;;;;;;;5111125;28;20220;-79
2021/10/17 02:04:26;;;;;;;13.68;9.40;;;;;;;;;;5109680;28;20643;-78
2021/10/17 02:06:53;;;;;;;13.10;9.40;;;;;;;;;;5106553;28;20295;-79
2021/10/17 02:09:21;;;;;;;14.45;10.60;;;;;;;;;;5110062;28;20576;-79
2021/10/17 02:11:49;;;;;;;16.85;9.27;;;;;;;;;;5102346;28;20196;-79
2021/10/17 02:14:16;;;;;;;13.00;8.55;;;;;;;;;;5113952;27;20211;-79
2021/10/17 02:16:44;;;;;;;10.60;8.93;;;;;;;;;;5114221;28;20661;-78
2021/10/17 02:19:11;;;;;;;12.88;8.85;;;;;;;;;;5105138;28;20287;-79
2021/10/17 02:21:38;;;;;;;15.55;9.90;;;;;;;;;;5107774;28;20208;-77
2021/10/17 02:24:06;;;;;;;13.38;9.90;;;;;;;;;;5088787;28;20236;-77
2021/10/17 02:26:33;;;;;;;19.05;9.43;;;;;;;;;;5089059;28;20233;-78
2021/10/17 02:29:02;;;;;;;14.18;9.88;;;;;;;;;;5098970;28;20196;-77
2021/10/17 02:31:29;;;;;;;18.90;9.95;;;;;;;;;;5111832;28;20197;-77
2021/10/17 02:33:57;;;;;;;14.00;9.45;;;;;;;;;;5109443;28;20217;-78
2021/10/17 02:36:24;;;;;;;15.15;9.00;;;;;;;;;;5114927;28;20204;-78
2021/10/17 02:38:51;;;;;;;15.02;9.32;;;;;;;;;;5114623;27;20199;-78
2021/10/17 02:41:18;;;;;;;13.93;9.02;;;;;;;;;;5099373;27;20208;-78
2021/10/17 02:43:46;;;;;;;14.02;9.20;;;;;;;;;;5113136;28;20213;-78
2021/10/17 02:46:14;;;;;;;14.50;9.43;;;;;;;;;;5109752;28;20197;-77
2021/10/17 02:48:41;;;;;;;11.27;8.50;;;;;;;;;;5100254;28;21105;-78
2021/10/17 02:51:09;;;;;;;12.30;8.82;;;;;;;;;;5107883;28;20199;-77
2021/10/17 02:53:36;;;;;;;17.48;9.48;;;;;;;;;;5113511;28;20604;-78
2021/10/17 02:56:04;;;;;;;14.82;9.23;;;;;;;;;;5110831;28;20188;-78
2021/10/17 02:58:31;;;;;;;13.40;9.15;;;;;;;;;;5119275;27;20312;-77
2021/10/17 03:00:58;;;;;;;17.73;10.32;;;;;;;;;;5112217;27;20189;-77
2021/10/17 03:03:26;;;;;;;10.68;8.95;;;;;;;;;;5105342;28;20699;-77
2021/10/17 03:05:54;;;;;;;16.27;10.30;;;;;;;;;;5112235;28;20188;-77
2021/10/17 03:08:21;;;;;;;12.95;9.27;;;;;;;;;;5110206;28;20193;-81
2021/10/17 03:10:48;;;;;;;12.55;9.85;;;;;;;;;;5109921;28;20192;-81
2021/10/17 03:13:16;;;;;;;13.85;9.43;;;;;;;;;;5104527;27;20573;-80
2021/10/17 03:15:43;;;;;;;11.07;8.75;;;;;;;;;;5118428;27;20193;-78
2021/10/17 03:18:10;;;;;;;12.80;9.43;;;;;;;;;;5108205;27;20200;-79
2021/10/17 03:20:38;;;;;;;15.90;10.00;;;;;;;;;;5104748;28;20192;-79
2021/10/17 03:23:06;;;;;;;11.93;8.80;;;;;;;;;;5111245;28;20591;-80
2021/10/17 03:25:33;;;;;;;13.50;9.45;;;;;;;;;;5110023;28;20193;-79
2021/10/17 03:28:00;;;;;;;14.73;10.10;;;;;;;;;;5099781;28;20198;-80
2021/10/17 03:30:27;;;;;;;10.85;9.25;;;;;;;;;;5108381;27;20191;-81
2021/10/17 03:32:54;;;;;;;12.23;9.32;;;;;;;;;;5111124;27;20381;-78
2021/10/17 03:35:22;;;;;;;14.00;9.60;;;;;;;;;;5105670;28;20282;-81
2021/10/17 03:37:50;;;;;;;13.85;9.00;;;;;;;;;;5107287;28;21209;-82
2021/10/17 03:40:17;;;;;;;12.13;9.88;;;;;;;;;;5101410;28;20193;-80
2021/10/17 03:42:45;;;;;;;12.35;9.02;;;;;;;;;;5099754;28;20381;-81
2021/10/17 03:45:12;;;;;;;10.50;9.35;;;;;;;;;;5106290;27;20522;-81
2021/10/17 03:47:39;;;;;;;18.55;9.30;;;;;;;;;;5118664;27;20207;-80
2021/10/17 03:50:07;;;;;;;11.13;9.05;;;;;;;;;;5110072;27;20196;-79
2021/10/17 03:52:35;;;;;;;12.57;9.43;;;;;;;;;;5110455;28;20199;-80
2021/10/17 03:55:03;;;;;;;11.27;8.73;;;;;;;;;;5109169;28;20287;-79
2021/10/17 03:57:30;;;;;;;12.60;9.10;;;;;;;;;;5111723;28;20189;-81
2021/10/17 03:59:58;;;;;;;11.85;9.13;;;;;;;;;;5104142;28;20192;-80
2021/10/17 04:02:25;;;;;;;17.08;10.13;;;;;;;;;;5116718;27;20696;-79
2021/10/17 04:04:52;;;;;;;12.80;8.43;;;;;;;;;;5116288;27;20194;-79
2021/10/17 04:07:19;;;;;;;14.32;9.13;;;;;;;;;;5110842;28;20189;-80
2021/10/17 04:09:46;;;;;;;13.50;8.90;;;;;;;;;;5110349;28;20300;-82
2021/10/17 04:12:16;;;;;;;13.90;8.38;;;;;;;;;;5108938;28;20193;-80
2021/10/17 04:14:43;;;;;;;11.63;8.38;;;;;;;;;;5108145;28;20221;-79
2021/10/17 04:17:10;;;;;;;10.38;8.68;;;;;;;;;;5111861;27;20546;-80
2021/10/17 04:19:37;;;;;;;13.88;8.88;;;;;;;;;;5116852;27;20193;-79
2021/10/17 04:22:04;;;;;;;14.38;8.85;;;;;;;;;;5103827;28;20212;-80
2021/10/17 04:24:32;;;;;;;10.80;8.18;;;;;;;;;;5110392;28;20216;-78
2021/10/17 04:26:59;;;;;;;14.38;9.02;;;;;;;;;;5109139;28;20288;-78
2021/10/17 04:29:27;;;;;;;12.05;8.73;;;;;;;;;;5113959;28;20188;-79
2021/10/17 04:31:55;;;;;;;15.95;9.20;;;;;;;;;;5114792;27;20196;-81
2021/10/17 04:34:22;;;;;;;12.32;8.98;;;;;;;;;;5100835;27;20201;-81
2021/10/17 04:36:49;;;;;;;11.98;9.15;;;;;;;;;;5100622;28;20200;-77
2021/10/17 04:39:16;;;;;;;10.40;8.48;;;;;;;;;;5110301;28;20197;-78
2021/10/17 04:41:44;;;;;;;12.02;9.02;;;;;;;;;;5107973;28;20616;-79
2021/10/17 04:44:12;;;;;;;11.90;8.73;;;;;;;;;;5099859;28;20224;-77
2021/10/17 04:46:40;;;;;;;10.30;9.30;;;;;;;;;;5103492;27;20189;-78
2021/10/17 04:49:07;;;;;;;14.35;9.80;;;;;;;;;;5100983;27;20188;-78
2021/10/17 04:51:35;;;;;;;17.67;9.48;;;;;;;;;;5124680;27;20645;-77
2021/10/17 04:54:02;;;;;;;16.35;9.80;;;;;;;;;;5130708;27;20215;-78
2021/10/17 04:56:29;;;;;;;14.75;9.38;;;;;;;;;;5095985;27;20205;-79
2021/10/17 04:58:56;;;;;;;12.73;9.63;;;;;;;;;;5089438;28;20652;-78
2021/10/17 05:01:25;;;;;;;13.90;8.80;;;;;;;;;;5092359;27;20220;-79
2021/10/17 05:03:53;;;;;;;12.23;9.18;;;;;;;;;;5116185;27;20312;-78
2021/10/17 05:06:21;;;;;;;11.75;9.40;;;;;;;;;;5107081;27;20197;-78
2021/10/17 05:08:48;;;;;;;16.02;10.15;;;;;;;;;;5103433;28;20193;-77
2021/10/17 05:11:15;;;;;;;15.63;9.88;;;;;;;;;;5109642;28;20194;-80
2021/10/17 05:13:42;;;;;;;15.57;9.25;;;;;;;;;;5101140;28;20231;-77
2021/10/17 05:16:09;;;;;;;18.42;9.73;;;;;;;;;;5095354;28;20212;-79
2021/10/17 05:18:37;;;;;;;11.57;9.30;;;;;;;;;;5115142;27;20177;-78
2021/10/17 05:21:05;;;;;;;13.07;9.90;;;;;;;;;;5114086;27;20652;-78
2021/10/17 05:23:32;;;;;;;14.52;10.38;;;;;;;;;;5109525;27;20337;-78
2021/10/17 05:26:01;;;;;;;14.23;9.50;;;;;;;;;;5095693;28;20201;-79
2021/10/17 05:28:28;;;;;;;10.38;8.52;;;;;;;;;;5103851;28;20544;-79
2021/10/17 05:30:57;;;;;;;13.43;9.13;;;;;;;;;;5109893;28;20197;-78
2021/10/17 05:33:24;;;;;;;12.18;8.63;;;;;;;;;;5100200;28;20311;-78
2021/10/17 05:35:51;;;;;;;14.93;9.85;;;;;;;;;;5116463;27;20643;-78
2021/10/17 05:38:20;;;;;;;12.25;8.55;;;;;;;;;;5105048;27;20189;-79
2021/10/17 05:40:47;;;;;;;12.77;9.10;;;;;;;;;;5109142;28;20192;-78
2021/10/17 05:43:14;;;;;;;16.58;9.85;;;;;;;;;;5107419;28;20232;-79
2021/10/17 05:45:41;;;;;;;11.90;9.63;;;;;;;;;;5097559;28;20188;-79
2021/10/17 05:48:09;;;;;;;13.82;9.85;;;;;;;;;;5094853;28;20201;-79
2021/10/17 05:50:36;;;;;;;12.43;9.52;;;;;;;;;;5109199;28;20181;-79
2021/10/17 05:53:03;;;;;;;14.45;9.60;;;;;;;;;;5110022;27;20219;-79
2021/10/17 05:55:32;;;;;;;14.63;9.25;;;;;;;;;;5097151;27;20651;-79
2021/10/17 05:57:59;;;;;;;13.77;10.10;;;;;;;;;;5109432;28;20198;-79
2021/10/17 06:00:26;;;;;;;13.20;9.25;;;;;;;;;;5109494;28;20191;-79
2021/10/17 06:02:53;;;;;;;13.43;8.40;;;;;;;;;;5107778;28;20235;-79
2021/10/17 06:05:21;;;;;;;10.48;8.77;;;;;;;;;;5092405;28;20630;-79
2021/10/17 06:07:48;;;;;;;13.60;9.20;;;;;;;;;;5103090;28;20193;-79
2021/10/17 06:10:15;;;;;;;13.30;9.40;;;;;;;;;;5111776;28;20188;-78
2021/10/17 06:12:43;;;;;;;14.50;9.70;;;;;;;;;;5113104;28;20702;-79
2021/10/17 06:15:11;;;;;;;12.32;8.95;;;;;;;;;;5118162;27;20203;-78
2021/10/17 06:17:39;;;;;;;15.43;10.32;;;;;;;;;;5110665;28;20647;-78
2021/10/17 06:20:07;;;;;;;9.77;8.70;;;;;;;;;;5111746;28;20199;-79
2021/10/17 06:22:34;;;;;;;19.95;9.77;;;;;;;;;;5103757;28;20686;-80
2021/10/17 06:25:02;;;;;;;11.38;8.90;;;;;;;;;;5093243;28;20231;-79
2021/10/17 06:27:29;;;;;;;14.23;9.02;;;;;;;;;;5098645;28;20196;-79
2021/10/17 06:29:57;;;;;;;14.85;9.52;;;;;;;;;;5116314;28;20193;-79
2021/10/17 06:32:25;;;;;;;14.38;9.45;;;;;;;;;;5111069;28;20392;-80
2021/10/17 06:34:52;;;;;;;14.80;8.75;;;;;;;;;;5109354;27;20258;-79
2021/10/17 06:37:19;;;;;;;10.85;8.40;;;;;;;;;;5121133;27;20618;-78
2021/10/17 06:39:46;;;;;;;10.05;8.65;;;;;;;;;;5121179;27;20569;-78
2021/10/17 06:42:13;;;;;;;13.20;7.93;;;;;;;;;;5106863;28;20193;-79
2021/10/17 06:44:41;;;;;;;11.30;8.88;;;;;;;;;;5113059;28;20708;-77
2021/10/17 06:47:09;;;;;;;12.88;9.15;;;;;;;;;;5111201;28;20200;-80
2021/10/17 06:49:37;;;;;;;9.93;8.20;;;;;;;;;;5103082;27;20207;-80
2021/10/17 06:52:04;;;;;;;11.43;8.60;;;;;;;;;;5119445;27;20189;-80
2021/10/17 06:54:32;;;;;;;14.15;8.98;;;;;;;;;;5111640;27;20204;-78
2021/10/17 06:56:59;;;;;;;8.07;7.28;;;;;;;;;;5100310;28;20637;-77
2021/10/17 06:59:26;;;;;;;12.77;9.02;;;;;;;;;;5103307;28;20189;-78
2021/10/17 07:01:53;;;;;;;13.10;9.30;;;;;;;;;;5090166;28;20225;-78
2021/10/17 07:04:22;;;;;;;10.45;8.35;;;;;;;;;;5094143;28;20225;-80
2021/10/17 07:06:49;;;;;;;10.55;7.47;;;;;;;;;;5114696;27;20533;-77
2021/10/17 07:09:16;;;;;;;13.82;9.23;;;;;;;;;;5116744;27;20216;-78
2021/10/17 07:11:44;;;;;;;21.65;8.50;;;;;;;;;;5132202;27;20199;-79
2021/10/17 07:14:11;;;;;;;9.75;7.40;;;;;;;;;;5116744;27;20215;-79
2021/10/17 07:16:38;;;;;;;12.23;7.85;;;;;;;;;;5112104;28;20189;-78
2021/10/17 07:19:05;;;;;;;9.93;7.57;;;;;;;;;;5103517;28;20188;-78
2021/10/17 07:21:34;;;;;;;8.43;7.55;;;;;;;;;;5099423;27;20793;-79
2021/10/17 07:24:01;;;;;;;10.13;7.30;;;;;;;;;;5118261;27;20227;-79
2021/10/17 07:26:29;;;;;;;7.78;6.97;;;;;;;;;;5111935;27;20216;-79
2021/10/17 07:28:56;;;;;;;7.70;6.65;;;;;;;;;;5111570;28;20535;-78
2021/10/17 07:31:23;;;;;;;7.63;6.30;;;;;;;;;;5109573;28;20545;-78
2021/10/17 07:33:50;;;;;;;10.00;6.20;;;;;;;;;;5109876;28;20213;-79
2021/10/17 07:36:18;;;;;;;9.60;6.63;;;;;;;;;;5103513;27;20197;-80
2021/10/17 07:38:46;;;;;;;11.03;7.70;;;;;;;;;;5119488;27;20438;-80
2021/10/17 07:41:13;;;;;;;6.77;5.97;;;;;;;;;;5098894;27;20455;-79
2021/10/17 07:43:40;;;;;;;7.70;6.73;;;;;;;;;;5090883;28;20491;-79
2021/10/17 07:46:08;;;;;;;8.77;7.60;;;;;;;;;;5090626;28;20446;-78
2021/10/17 07:48:38;;;;;;;8.57;6.80;;;;;;;;;;5100257;28;20491;-79
2021/10/17 07:51:05;;;;;;;8.50;6.67;;;;;;;;;;5107668;27;20443;-78
2021/10/17 07:53:33;;;;;;;10.20;6.70;;;;;;;;;;5106094;27;21118;-79
2021/10/17 07:56:02;;;;;;;8.10;7.30;;;;;;;;;;5113433;27;20437;-79
2021/10/17 07:58:29;;;;;;;8.23;6.30;;;;;;;;;;5089114;28;20935;-81
2021/10/17 08:00:56;;;;;;;8.30;6.73;;;;;;;;;;5090929;28;20473;-79
2021/10/17 08:03:23;;;;;;;9.50;6.50;;;;;;;;;;5090224;28;20487;-79
2021/10/17 08:05:50;;;;;;;9.77;7.03;;;;;;;;;;5089669;28;20454;-78
2021/10/17 08:08:18;;;;;;;7.87;7.00;;;;;;;;;;5109346;27;20919;-79
2021/10/17 08:10:45;;;;;;;6.93;6.23;;;;;;;;;;5110081;27;21350;-78
2021/10/17 08:13:13;;;;;;;7.73;6.47;;;;;;;;;;5110228;28;20458;-78
2021/10/17 08:15:41;;;;;;;11.03;6.93;;;;;;;;;;5109228;28;20454;-81
2021/10/17 08:18:08;;;;;;;8.50;7.27;;;;;;;;;;5111068;28;20437;-79
2021/10/17 08:20:35;;;;;;;8.30;6.70;;;;;;;;;;5110884;28;20528;-79
2021/10/17 08:23:03;;;;;;;8.60;7.10;;;;;;;;;;5095743;27;20477;-79
2021/10/17 08:25:32;;;;;;;7.67;6.57;;;;;;;;;;5110173;27;20434;-79
2021/10/17 08:27:59;;;;;;;8.20;7.30;;;;;;;;;;5113845;27;20431;-79
2021/10/17 08:30:28;;;;;;;9.23;7.30;;;;;;;;;;5107002;28;20919;-78
2021/10/17 08:32:55;;;;;;;9.67;6.60;;;;;;;;;;5092804;28;20474;-78
2021/10/17 08:35:22;;;;;;;11.10;7.80;;;;;;;;;;5110747;28;20447;-79
2021/10/17 08:37:49;;;;;;;9.50;7.27;;;;;;;;;;5105016;28;20455;-79
2021/10/17 08:40:17;;;;;;;9.10;7.80;;;;;;;;;;5114603;27;20457;-79
2021/10/17 08:42:44;;;;;;;10.40;6.90;;;;;;;;;;5117359;27;20461;-78
2021/10/17 08:45:11;;;;;;;8.83;7.60;;;;;;;;;;5109210;27;20486;-79
2021/10/17 08:47:40;;;;;;;10.90;9.07;;;;;;;;;;5099614;28;20951;-78
2021/10/17 08:50:08;;;;;;;14.20;9.30;;;;;;;;;;5108422;28;20809;-78
2021/10/17 08:52:35;;;;;;;13.57;9.30;;;;;;;;;;5108617;28;20443;-79
2021/10/17 08:55:03;;;;;;;12.50;9.30;;;;;;;;;;5099591;27;20820;-79
2021/10/17 08:57:30;;;;;;;12.57;8.73;;;;;;;;;;5112074;27;20544;-79
2021/10/17 08:59:57;;;;;;;14.87;10.00;;;;;;;;;;5123070;27;20425;-80
2021/10/17 09:02:25;;;;;;;9.93;8.33;;;;;;;;;;5112166;27;21270;-79
2021/10/17 09:05:02;;;;;;;12.60;8.37;;;;;;;;;;5088248;28;20479;-79
2021/10/17 09:07:29;;;;;;;10.17;7.90;;;;;;;;;;5088707;28;20975;-80
2021/10/17 09:10:11;;;;;;;9.60;8.53;;;;;;;;;;5098425;28;20459;-80
2021/10/17 09:12:39;;;;;;;11.00;9.10;;;;;;;;;;5098414;27;20453;-79
2021/10/17 09:15:21;;;;;;;13.93;8.93;;;;;;;;;;5093002;27;20439;-79
2021/10/17 09:18:03;;;;;;;12.43;9.07;;;;;;;;;;5102149;28;20970;-79
2021/10/17 09:20:32;;;;;;;12.20;8.70;;;;;;;;;;5087749;28;20465;-79
2021/10/17 09:23:00;;;;;;;11.70;8.47;;;;;;;;;;5089012;27;20475;-78
2021/10/17 09:25:31;;;;;;;9.20;8.30;;;;;;;;;;5055465;28;20514;-79
2021/10/17 09:27:59;;;;;;;11.73;7.70;;;;;;;;;;5064287;28;20441;-78
2021/10/17 09:30:26;;;;;;;13.97;8.10;;;;;;;;;;5072134;28;20470;-78
2021/10/17 09:32:54;;;;;;;11.43;7.53;;;;;;;;;;5066709;28;20453;-79
2021/10/17 09:35:32;;;;;;;9.87;7.47;;;;;;;;;;5064264;28;20436;-80
2021/10/17 09:38:03;;;;;;;10.40;7.83;;;;;;;;;;5044600;28;21857;-79
2021/10/17 09:40:33;;;;;;;13.13;8.73;;;;;;;;;;5061758;28;20535;-79
2021/10/17 09:43:02;;;;;;;10.17;8.10;;;;;;;;;;5057103;28;20575;-80
2021/10/17 09:45:29;;;;;;;8.07;7.20;;;;;;;;;;5058869;28;20841;-78
2021/10/17 09:47:56;;;;;;;12.87;7.50;;;;;;;;;;5053411;28;20488;-78
2021/10/17 09:50:23;;;;;;;9.47;7.90;;;;;;;;;;5065591;28;20452;-79
2021/10/17 09:53:08;;;;;;;9.37;7.60;;;;;;;;;;5068579;28;20456;-79
2021/10/17 09:55:36;;;;;;;12.30;7.70;;;;;;;;;;5024308;28;20677;-78
2021/10/17 09:58:06;;;;;;;11.10;7.20;;;;;;;;;;5010179;28;20796;-78
2021/10/17 10:00:34;;;;;;;11.17;7.10;;;;;;;;;;5017752;28;20517;-78
2021/10/17 10:03:02;;;;;;;8.40;6.47;;;;;;;;;;5030779;28;20565;-80
2021/10/17 10:05:30;;;;;;;13.27;7.47;;;;;;;;;;5026805;28;20498;-79
2021/10/17 10:07:59;;;;;;;13.27;7.50;;;;;;;;;;5015237;28;20549;-79
2021/10/17 10:10:27;;;;;;;10.73;7.93;;;;;;;;;;5009885;28;20441;-78
2021/10/17 10:12:57;;;;;;;9.97;7.10;;;;;;;;;;5016808;28;20475;-77
2021/10/17 10:15:25;;;;;;;8.17;6.83;;;;;;;;;;5026478;28;20460;-78
2021/10/17 10:17:54;;;;;;;8.83;6.90;;;;;;;;;;5028209;28;20465;-79
2021/10/17 10:20:21;;;;;;;8.20;6.60;;;;;;;;;;5021845;28;20958;-79
2021/10/17 10:22:49;;;;;;;13.27;7.20;;;;;;;;;;5026342;28;20478;-81
2021/10/17 10:25:18;;;;;;;8.07;6.40;;;;;;;;;;5068582;28;20479;-79
2021/10/17 10:27:45;;;;;;;12.77;7.97;;;;;;;;;;5101739;28;20517;-81
2021/10/17 10:30:24;;;;;;;10.00;6.30;;;;;;;;;;5090458;28;20463;-80
2021/10/17 10:33:06;;;;;;;9.40;7.20;;;;;;;;;;5094607;28;20457;-80
2021/10/17 10:35:34;;;;;;;9.20;7.30;;;;;;;;;;5095198;28;20545;-79
2021/10/17 10:38:01;;;;;;;14.33;6.90;;;;;;;;;;5101778;28;20458;-80
2021/10/17 10:40:29;;;;;;;12.20;5.83;;;;;;;;;;5097513;27;20477;-79
2021/10/17 10:42:56;;;;;;;6.73;6.03;;;;;;;;;;5113611;27;20474;-85
2021/10/17 10:45:26;;;;;;;6.73;6.03;;;;;;;;;;5108606;27;20834;-79
2021/10/17 10:48:08;;;;;;;7.87;6.20;;;;;;;;;;5098906;27;20447;-80
2021/10/17 10:50:37;;;;;;;8.70;5.80;;;;;;;;;;5087265;28;20959;-83
2021/10/17 10:53:04;;;;;;;8.03;6.63;;;;;;;;;;5095309;28;20471;-83
2021/10/17 10:55:44;;;;;;;9.50;5.17;;;;;;;;;;5110707;28;20444;-79
2021/10/17 10:58:27;;;;;;;11.83;6.43;;;;;;;;;;5110271;27;20462;-79
2021/10/17 11:00:56;;;;;;;10.13;5.90;;;;;;;;;;5100713;28;20472;-80
2021/10/17 11:03:25;;;;;;;5.70;4.73;;;;;;;;;;5097225;28;20480;-85
2021/10/17 11:06:07;;;;;;;11.50;6.20;;;;;;;;;;5105061;28;20864;-81
2021/10/17 11:08:40;;;;;;;9.20;5.70;;;;;;;;;;5105142;28;20472;-82
2021/10/17 11:11:08;;;;;;;6.50;5.43;;;;;;;;;;5092384;28;20886;-86
2021/10/17 11:13:37;;;;;;;5.20;4.70;;;;;;;;;;5109406;27;20453;-82
2021/10/17 11:16:06;;;;;;;7.53;5.27;;;;;;;;;;5131415;27;20896;-79
2021/10/17 11:18:36;;;;;;;11.47;6.70;;;;;;;;;;5112637;27;20966;-83
2021/10/17 11:21:04;;;;;;;8.37;6.13;;;;;;;;;;5104020;27;20482;-79
2021/10/17 11:23:33;;;;;;;5.77;4.93;;;;;;;;;;5106719;27;21015;-80
2021/10/17 11:26:01;;;;;;;7.63;5.03;;;;;;;;;;5088097;28;20507;-80
2021/10/17 11:28:29;;;;;;;5.63;4.90;;;;;;;;;;5105938;28;20450;-82
2021/10/17 11:31:07;;;;;;;5.30;4.53;;;;;;;;;;5106616;28;20453;-84
2021/10/17 11:33:34;;;;;;;6.50;4.10;;;;;;;;;;5109402;28;20483;-86
2021/10/17 11:36:01;;;;;;;12.40;5.13;;;;;;;;;;5108958;28;20442;-82
2021/10/17 11:38:31;;;;;;;5.77;4.43;;;;;;;;;;5098805;28;20466;-81
2021/10/17 11:41:00;;;;;;;6.60;4.73;;;;;;;;;;5113437;27;20437;-79
2021/10/17 11:43:33;;;;;;;6.03;4.47;;;;;;;;;;5100021;27;20573;-82
2021/10/17 11:46:02;;;;;;;6.10;3.53;;;;;;;;;;5107405;28;20496;-80
2021/10/17 11:48:33;;;;;;;5.47;3.60;;;;;;;;;;5105965;28;20817;-81
2021/10/17 11:51:04;;;;;;;4.53;3.30;;;;;;;;;;5087544;28;20803;-81
2021/10/17 11:53:31;;;;;;;4.57;3.40;;;;;;;;;;5077787;28;20460;-80
2021/10/17 11:55:59;;;;;;;5.50;4.00;;;;;;;;;;5091740;27;20489;-81
2021/10/17 11:58:27;;;;;;;6.93;4.57;;;;;;;;;;5107548;27;20933;-80
2021/10/17 12:00:55;;;;;;;7.13;4.27;;;;;;;;;;5111717;27;20457;-83
2021/10/17 12:03:23;;;;;;;5.30;3.83;;;;;;;;;;5100123;28;20466;-81
2021/10/17 12:05:52;;;;;;;5.90;4.60;;;;;;;;;;5087021;28;20489;-82
2021/10/17 12:08:20;;;;;;;5.93;4.63;;;;;;;;;;5085746;28;20798;-83
2021/10/17 12:11:02;;;;;;;5.50;4.37;;;;;;;;;;5087975;28;21018;-80
2021/10/17 12:13:30;;;;;;;8.40;4.70;;;;;;;;;;5094229;27;20971;-81
2021/10/17 12:16:06;;;;;;;5.07;4.13;;;;;;;;;;5101732;28;20920;-82
2021/10/17 12:18:33;;;;;;;4.30;3.90;;;;;;;;;;5106973;28;20434;-82
2021/10/17 12:21:02;;;;;;;5.10;4.60;;;;;;;;;;5089661;28;20461;-81
2021/10/17 12:23:30;;;;;;;5.00;3.83;;;;;;;;;;5085381;28;20462;-81
2021/10/17 12:25:57;;;;;;;5.30;4.13;;;;;;;;;;5087389;27;20510;-82
2021/10/17 12:28:24;;;;;;;10.47;4.30;;;;;;;;;;5112230;27;20442;-82
2021/10/17 12:30:52;;;;;;;5.93;3.87;;;;;;;;;;5114395;27;20438;-81
2021/10/17 12:33:36;;;;;;;9.97;4.87;;;;;;;;;;5083931;28;20483;-80
2021/10/17 12:36:05;;;;;;;7.60;4.63;;;;;;;;;;5085245;28;20439;-81
2021/10/17 12:38:34;;;;;;;7.00;4.87;;;;;;;;;;5086220;28;20451;-79
2021/10/17 12:41:02;;;;;;;5.90;4.10;;;;;;;;;;5087521;28;20461;-81
2021/10/17 12:43:30;;;;;;;4.40;3.50;;;;;;;;;;5099294;27;20457;-79
2021/10/17 12:46:09;;;;;;;6.70;3.60;;;;;;;;;;5104650;27;20579;-84
2021/10/17 12:48:39;;;;;;;3.40;3.07;;;;;;;;;;5099582;28;20455;-82
2021/10/17 12:51:21;;;;;;;6.47;3.90;;;;;;;;;;5104364;28;20919;-84
2021/10/17 12:54:03;;;;;;;8.23;3.50;;;;;;;;;;5106323;28;20458;-81
2021/10/17 12:56:30;;;;;;;5.60;3.73;;;;;;;;;;5090760;28;20452;-84
2021/10/17 12:59:05;;;;;;;4.83;3.77;;;;;;;;;;5109541;27;20439;-82
2021/10/17 13:01:33;;;;;;;7.60;3.53;;;;;;;;;;5103313;27;20454;-82
2021/10/17 13:04:15;;;;;;;4.70;3.37;;;;;;;;;;5090081;28;20496;-82
2021/10/17 13:06:49;;;;;;;4.47;3.60;;;;;;;;;;5103174;28;20493;-80
2021/10/17 13:09:18;;;;;;;6.30;3.60;;;;;;;;;;5094668;28;20450;-80
2021/10/17 13:11:46;;;;;;;4.00;2.67;;;;;;;;;;5093893;28;20461;-82
2021/10/17 13:14:14;;;;;;;3.17;2.87;;;;;;;;;;5097434;28;20458;-82
2021/10/17 13:16:41;;;;;;;3.30;3.00;;;;;;;;;;5087985;28;20446;-80
2021/10/17 13:19:09;;;;;;;6.23;3.30;;;;;;;;;;5087105;28;20800;-80
2021/10/17 13:21:36;;;;;;;4.27;2.83;;;;;;;;;;5108574;27;20444;-81
2021/10/17 13:24:04;;;;;;;4.33;3.13;;;;;;;;;;5116713;27;20879;-82
2021/10/17 13:26:46;;;;;;;4.97;3.30;;;;;;;;;;5111559;28;20492;-81
2021/10/17 13:29:13;;;;;;;4.80;2.83;;;;;;;;;;5106356;28;20432;-80
2021/10/17 13:31:48;;;;;;;3.73;3.07;;;;;;;;;;5090857;28;20774;-80
2021/10/17 13:34:15;;;;;;;4.50;3.00;;;;;;;;;;5087734;28;20471;-82
2021/10/17 13:36:42;;;;;;;3.27;2.97;;;;;;;;;;5103312;27;20446;-80
2021/10/17 13:39:10;;;;;;;3.83;2.80;;;;;;;;;;5106655;27;20449;-80
2021/10/17 13:41:38;;;;;;;2.70;2.47;;;;;;;;;;5110775;27;20806;-79
2021/10/17 13:44:05;;;;;;;3.97;3.23;;;;;;;;;;5106867;28;20474;-80
2021/10/17 13:46:36;;;;;;;3.20;2.47;;;;;;;;;;5109458;28;20815;-79
2021/10/17 13:49:03;;;;;;;4.40;2.53;;;;;;;;;;5108418;28;20458;-79
2021/10/17 13:51:31;;;;;;;2.77;2.50;;;;;;;;;;5101128;28;20802;-80
2021/10/17 13:53:58;;;;;;;5.00;2.97;;;;;;;;;;5116191;27;20458;-79
2021/10/17 13:56:25;;;;;;;3.40;3.10;;;;;;;;;;5103532;28;20819;-79
2021/10/17 13:58:54;;;;;;;7.80;2.73;;;;;;;;;;5105744;28;20446;-79
2021/10/17 14:01:22;;;;;;;6.00;3.50;;;;;;;;;;5105673;28;20417;-78
2021/10/17 14:03:49;;;;;;;6.37;3.80;;;;;;;;;;5098461;28;20454;-78
2021/10/17 14:06:16;;;;;;;5.43;4.20;;;;;;;;;;5098026;28;20478;-78
2021/10/17 14:08:43;;;;;;;3.90;3.30;;;;;;;;;;5116195;27;20439;-78
2021/10/17 14:11:11;;;;;;;5.23;3.80;;;;;;;;;;5113307;27;20950;-78
2021/10/17 14:13:38;;;;;;;4.20;3.10;;;;;;;;;;5090036;28;20509;-79
2021/10/17 14:16:06;;;;;;;3.83;3.07;;;;;;;;;;5093870;28;20540;-78
2021/10/17 14:18:37;;;;;;;4.17;2.60;;;;;;;;;;5094171;28;20456;-78
2021/10/17 14:21:05;;;;;;;4.10;2.67;;;;;;;;;;5091446;28;20463;-78
2021/10/17 14:23:32;;;;;;;3.23;2.67;;;;;;;;;;5110140;28;20469;-79
2021/10/17 14:25:59;;;;;;;4.20;2.33;;;;;;;;;;5093763;28;20567;-78
2021/10/17 14:28:26;;;;;;;3.63;2.77;;;;;;;;;;5106746;28;20443;-78
2021/10/17 14:30:55;;;;;;;4.07;2.17;;;;;;;;;;5110830;28;20437;-78
2021/10/17 14:33:23;;;;;;;4.27;2.63;;;;;;;;;;5098914;28;20987;-79
2021/10/17 14:35:51;;;;;;;2.90;2.43;;;;;;;;;;5104754;28;20447;-79
2021/10/17 14:38:18;;;;;;;3.03;2.40;;;;;;;;;;5112202;28;20439;-79
2021/10/17 14:40:48;;;;;;;2.57;2.03;;;;;;;;;;5097904;28;20490;-79